Terminal Aerodrome Forecast
Issued by NWS Grand Forks, ND

Home | Current Version | Previous Version | Graphics & Text | Print | Product List | Glossary Off
Versions: 1 2 3 4 5 6 7 8 9 10 11 12 13

000
FTUS43 KFGF 211100
TAFFAR
TAF
KFAR 211123Z 2112/2212 16013KT 5SM BR OVC008
     FM211900 16015KT P6SM OVC012=

USA.gov is the U.S. government's official web portal to all federal, state and local government web resources and services.